Piper City, Illinois
Current Conditions -  °F | °C
As of 9:15 AM on Friday 31 Oct 2014 (Local Time) from KPNT Reporting Station
Overcast Overcast  
Wind Chill: 27°   Ceiling: 2100
Heat Index: 37°   Visibility: 10mi
Dew Point: 32°   Wind: 20mph
Humidity: 81%   Direction: 340°NNW
Pressure: 30.18"   Gusts: 31mph
Location:  40.76°N, 88.19°W
Report Text: KPNT 311415Z AUTO 34017G27KT 10SM OVC021 03/00 A3018 RMK AO2 T00281002
Loading
Personal Weather Stations






























Interactive Weather Map
Tropical Storm Tracking
New forecast layout! Learn more

10-Day Weather Forecast

Advertisements
Track Severe Weather on mobile